Terminal Aerodrome Forecast
Issued by NWS

Home | Current Version | Previous Version | Text Only | Print | Product List | Glossary Off
Versions: 1 2 3 4 5 6 7 8 9 10 11 12 13 14 15 16 17

027
FTUS43 KUNR 190520
TAFGCC
TAF
KGCC 190520Z 1906/2006 21012G20KT P6SM BKN150
     FM191800 33014G24KT P6SM -SHRA BKN035
     FM200000 29010KT P6SM BKN035=

USA.gov is the U.S. government's official web portal to all federal, state and local government web resources and services.